Latest Coastal Weather Observations for Kowanyama

IDQ60701

Issued at 8:21 pm EST Thursday 30 July 2015 (issued every 10 minutes, with the page automatically refreshed every 10 minutes)

About coastal observations | Map of coastal stations | Coastal observations for QLD | Marine services | Other Formats
Station Details ID: 029038 Name: KOWANYAMA AIRPORT Lat: -15.48 Lon: 141.75 Height: 9.6 m
Data from the previous 72 hours. | See also: Recent months at Kowanyama
Date/Time
EST
Temp

°C
Wind Pressure Rain
since 9am
mm
Weather Cloud Vis
km
Sea
Height
m
Swell
Dir
 
Speed
knots
Gust
knots
hPa Trend Height
m
Period
s
Dir
30/08:00pm 24.6 SW 6 7 1016.6 - 0.0 - - - - - - -
30/07:30pm 25.3 SW 6 8 1016.2 - 0.0 - Partly cloudy - - - - -
30/07:00pm 26.3 WSW 5 8 1015.9 - 0.0 - Cloudy - - - - -
30/06:30pm 27.2 WSW 7 10 1015.6 - 0.0 - Cloudy - - - - -
30/06:00pm 29.0 SSW 7 9 1015.3 - 0.0 - Cloudy - - - - -
30/05:30pm 31.0 SSE 9 14 1014.9 - 0.0 - Cloudy - - - - -
30/05:00pm 31.1 SE 6 8 1014.7 - 0.0 - Cloudy - - - - -
30/04:30pm 30.9 S 8 12 1014.6 - 0.0 - Cloudy - - - - -
30/04:00pm 31.0 SE 5 9 1014.6 - 0.0 - Partly cloudy - - - - -
30/03:30pm 32.3 SE 8 16 1014.7 - 0.0 - Partly cloudy - - - - -
30/03:00pm 30.6 S 9 14 1015.2 - 0.0 - Partly cloudy - - - - -
30/02:30pm 31.0 SSE 7 13 1015.4 - 0.0 - - - - - - -
30/02:00pm 31.3 SE 8 14 1015.8 - 0.0 - - - - - - -
30/01:30pm 30.4 SE 6 9 1016.4 - 0.0 - - - - - - -
30/01:00pm 29.7 E 7 12 1017.0 - 0.0 - - - - - - -
30/12:30pm 28.6 ESE 8 13 1017.7 - 0.0 - - - - - - -
30/12:00pm 28.9 ESE 7 11 1018.1 - 0.0 - - - - - - -
30/11:30am 27.6 ESE 9 13 1018.5 - 0.0 - - - - - - -
30/11:00am 27.0 ESE 9 15 1018.8 - 0.0 - - - - - - -
30/10:30am 26.7 SE 9 13 1019.2 - 0.0 - - - - - - -
30/10:00am 25.6 ESE 9 13 1019.6 - 0.0 - - - - - - -
30/09:30am 24.9 ESE 10 13 1019.6 - 0.0 - - - - - - -
30/09:00am 24.0 ESE 8 12 1019.4 - 0.0 - - - - - - -
30/08:30am 23.1 ESE 7 9 1019.2 - 0.0 - - - - - - -
30/08:00am 21.4 SE 5 6 1018.7 - 0.0 - - - - - - -
30/07:30am 19.6 SE 3 3 1018.4 - 0.0 - - - - - - -
30/07:00am 19.0 SE 3 3 1018.1 - 0.0 - - - - - - -
30/06:30am 19.8 ESE 3 5 1017.9 - 0.0 - - - - - - -
30/06:00am 20.3 ESE 4 4 1017.6 - 0.0 - - - - - - -
30/05:30am 21.5 ESE 4 5 1017.3 - 0.0 - - - - - - -
30/05:00am 22.2 E 5 6 1017.1 - 0.0 - - - - - - -
30/04:30am 22.3 ENE 4 6 1017.0 - 0.0 - - - - - - -
30/04:00am 22.6 E 5 6 1017.0 - 0.0 - - - - - - -
30/03:30am 21.8 E 3 5 1017.1 - 0.0 - - - - - - -
30/03:00am 23.3 E 4 7 1017.0 - 0.0 - - - - - - -
30/02:30am 22.6 E 4 5 1017.1 - 0.0 - - - - - - -
30/02:00am 22.9 E 3 5 1017.2 - 0.0 - Partly cloudy - - - - -
30/01:30am 22.4 NNE 3 5 1017.3 - 0.0 - - - - - - -
30/01:00am 22.8 NE 3 4 1017.7 - 0.0 - - - - - - -
30/12:30am 23.0 NE 3 4 1017.9 - 0.0 - Partly cloudy - - - - -
30/12:00am 23.1 NNE 3 5 1017.8 - 0.0 - - - - - - -
 
Date/Time
EST
Temp

°C
Wind Pressure Rain
since 9am
mm
Weather Cloud Vis
km
Sea
Height
m
Swell
Dir
 
Speed
knots
Gust
knots
hPa Trend Height
m
Period
s
Dir
29/11:30pm 23.8 N 3 5 1018.0 - 0.0 - - - - - - -
29/11:00pm 24.8 N 5 7 1018.2 - 0.0 - - - - - - -
29/10:30pm 25.6 N 5 7 1018.1 - 0.0 - Partly cloudy - - - - -
29/10:00pm 25.1 CALM 0 3 1017.9 - 0.0 - Cloudy - - - - -
29/09:30pm 25.4 NE 1 4 1017.6 - 0.0 - Partly cloudy - - - - -
29/09:00pm 24.6 SSW 4 6 1017.1 - 0.0 - Cloudy - - - - -
29/08:30pm 24.8 WSW 5 7 1017.0 - 0.0 - Partly cloudy - - - - -
29/08:00pm 25.7 SW 4 7 1016.6 - 0.0 - - - - - - -
29/07:30pm 27.0 SSW 5 8 1016.2 - 0.0 - Partly cloudy - - - - -
29/07:00pm 29.4 SSE 6 8 1015.6 - 0.0 - Partly cloudy - - - - -
29/06:30pm 30.2 SE 7 11 1015.4 - 0.0 - - - - - - -
29/06:00pm 31.2 SE 9 13 1015.1 - 0.0 - Mostly clear - - - - -
29/05:30pm 32.0 SSE 9 13 1014.8 - 0.0 - Partly cloudy - - - - -
29/05:00pm 32.1 ESE 8 14 1014.8 - 0.0 - Partly cloudy - - - - -
29/04:30pm 32.3 SE 9 13 1014.7 - 0.0 - Partly cloudy - - - - -
29/04:00pm 32.8 SSE 10 16 1014.6 - 0.0 - Partly cloudy - - - - -
29/03:30pm 32.6 SSE 10 16 1014.7 - 0.0 - Partly cloudy - - - - -
29/03:00pm 32.5 ESE 9 14 1014.9 - 0.0 - Mostly clear - - - - -
29/02:30pm 32.1 SE 11 17 1015.4 - 0.0 - Partly cloudy - - - - -
29/02:00pm 32.2 ESE 7 14 1015.7 - 0.0 - - - - - - -
29/01:30pm 31.7 E 8 13 1016.2 - 0.0 - - - - - - -
29/01:00pm 31.1 ESE 9 15 1016.8 - 0.0 - - - - - - -
29/12:30pm 30.4 ESE 9 16 1017.3 - 0.0 - - - - - - -
29/12:00pm 29.8 E 11 15 1017.8 - 0.0 - - - - - - -
29/11:30am 28.5 ESE 11 17 1018.3 - 0.0 - - - - - - -
29/11:00am 28.4 E 11 15 1018.7 - 0.0 - - - - - - -
29/10:30am 27.9 ESE 13 20 1019.1 - 0.0 - - - - - - -
29/10:00am 26.5 ESE 11 17 1019.4 - 0.0 - - - - - - -
29/09:30am 25.6 ESE 12 16 1019.4 - 0.0 - - - - - - -
29/09:00am 24.8 ESE 11 15 1019.4 - 0.0 - - - - - - -
29/08:30am 23.7 ESE 12 18 1019.2 - 0.0 - - - - - - -
29/08:00am 22.8 SE 8 11 1019.0 - 0.0 - - - - - - -
29/07:30am 21.7 ESE 7 8 1018.9 - 0.0 - - - - - - -
29/07:00am 21.9 ESE 6 8 1018.6 - 0.0 - - - - - - -
29/06:30am 22.1 ESE 6 8 1018.2 - 0.0 - - - - - - -
29/06:00am 22.2 ESE 5 6 1018.0 - 0.0 - - - - - - -
29/05:30am 22.7 ESE 6 8 1018.0 - 0.0 - - - - - - -
29/05:00am 23.1 E 4 6 1017.8 - 0.0 - - - - - - -
29/04:30am 23.7 E 5 8 1017.7 - 0.0 - - - - - - -
29/04:00am 24.3 E 6 10 1017.9 - 0.0 - Partly cloudy - - - - -
29/03:30am 23.8 E 6 8 1018.1 - 0.0 - Partly cloudy - - - - -
29/03:00am 22.0 CALM 0 4 1018.2 - 0.0 - Cloudy - - - - -
29/02:30am 22.8 CALM 0 0 1018.2 - 0.0 - Partly cloudy - - - - -
29/02:00am 22.6 NE 2 3 1018.1 - 0.0 - Cloudy - - - - -
29/01:30am 22.2 NNE 3 4 1018.0 - 0.0 - Partly cloudy - - - - -
29/01:00am 21.9 CALM 0 0 1018.1 - 0.0 - Partly cloudy - - - - -
29/12:30am 21.4 CALM 0 0 1018.1 - 0.0 - Partly cloudy - - - - -
29/12:00am 21.1 CALM 0 0 1018.2 - 0.0 - - - - - - -
 
Date/Time
EST
Temp

°C
Wind Pressure Rain
since 9am
mm
Weather Cloud Vis
km
Sea
Height
m
Swell
Dir
 
Speed
knots
Gust
knots
hPa Trend Height
m
Period
s
Dir
28/11:30pm 22.0 NW 1 4 1018.4 - 0.0 - Partly cloudy - - - - -
28/11:00pm 22.3 CALM 0 3 1018.5 - 0.0 - Partly cloudy - - - - -
28/10:30pm 22.2 CALM 0 3 1018.5 - 0.0 - Partly cloudy - - - - -
28/10:00pm 23.0 CALM 0 0 1018.2 - 0.0 - Partly cloudy - - - - -
28/09:30pm 23.3 NNE 4 8 1018.3 - 0.0 - Partly cloudy - - - - -
28/09:00pm 23.7 SW 4 5 1017.8 - 0.0 - - - - - - -
28/08:30pm 24.0 SW 5 7 1017.7 - 0.0 - - - - - - -
28/08:00pm 24.4 SW 5 6 1017.4 - 0.0 - - - - - - -
28/07:30pm 24.9 SW 6 8 1017.0 - 0.0 - - - - - - -
28/07:00pm 26.1 WSW 8 11 1016.6 - 0.0 - Partly cloudy - - - - -
28/06:30pm 29.9 SSE 5 7 1016.1 - 0.0 - - - - - - -
28/06:00pm 31.1 SSE 7 9 1015.8 - 0.0 - - - - - - -
28/05:30pm 31.9 SE 8 12 1015.4 - 0.0 - - - - - - -
28/05:00pm 32.0 E 7 12 1015.3 - 0.0 - - - - - - -
28/04:30pm 32.7 ESE 9 15 1015.1 - 0.0 - Partly cloudy - - - - -
28/04:00pm 32.1 E 9 13 1015.1 - 0.0 - Partly cloudy - - - - -
28/03:30pm 32.3 ESE 10 17 1015.1 - 0.0 - - - - - - -
28/03:00pm 32.1 ESE 9 17 1015.3 - 0.0 - - - - - - -
28/02:30pm 32.1 ENE 8 13 1015.5 - 0.0 - - - - - - -
28/02:00pm 31.4 ESE 9 19 1015.9 - 0.0 - - - - - - -
28/01:30pm 31.7 ESE 9 13 1016.5 - 0.0 - - - - - - -
28/01:00pm 30.7 E 8 14 1017.0 - 0.0 - - - - - - -
28/12:30pm 30.5 ENE 8 15 1017.6 - 0.0 - - - - - - -
28/12:00pm 29.9 ESE 9 15 1018.0 - 0.0 - - - - - - -
28/11:30am 29.7 ESE 11 15 1018.6 - 0.0 - - - - - - -
28/11:00am 27.8 SE 10 15 1019.1 - 0.0 - - - - - - -
28/10:30am 26.8 SE 9 13 1019.5 - 0.0 - - - - - - -
28/10:00am 27.1 SSE 9 12 1019.8 - 0.0 - - - - - - -
28/09:30am 26.0 SE 9 13 1019.8 - 0.0 - - - - - - -
28/09:00am 25.4 ESE 7 10 1019.6 - 0.0 - - - - - - -
28/08:30am 24.0 ESE 6 8 1019.4 - 0.0 - - - - - - -
28/08:00am 21.4 SSE 3 4 1019.3 - 0.0 - - - - - - -
28/07:30am 18.4 SE 1 4 1019.1 - 0.0 - - - - - - -
28/07:00am 17.9 CALM 0 0 1019.0 - 0.0 - - - - - - -
28/06:30am 17.7 CALM 0 0 1018.8 - 0.0 - - - - - - -
28/06:00am 18.1 CALM 0 0 1018.4 - 0.0 - - - - - - -
28/05:30am 18.2 CALM 0 0 1018.2 - 0.0 - - - - - - -
28/05:00am 18.7 CALM 0 0 1017.9 - 0.0 - - - - - - -
28/04:30am 19.1 CALM 0 1 1017.8 - 0.0 - - - - - - -
28/04:00am 19.8 ESE 1 4 1017.8 - 0.0 - - - - - - -
28/03:30am 20.8 SE 3 4 1017.7 - 0.0 - - - - - - -
28/03:00am 21.0 ENE 4 5 1017.7 - 0.0 - - - - - - -
28/02:30am 21.1 ENE 4 5 1018.0 - 0.0 - Partly cloudy - - - - -
28/02:00am 21.6 ENE 3 5 1018.2 - 0.0 - - - - - - -
28/01:30am 23.5 SE 4 6 1018.6 - 0.0 - - - - - - -
28/01:00am 23.6 SSE 4 6 1018.8 - 0.0 - - - - - - -
28/12:30am 24.1 NE 5 8 1017.9 - 0.0 - - - - - - -
28/12:00am 23.3 NNE 4 7 1018.1 - 0.0 - - - - - - -
 
Date/Time
EST
Temp

°C
Wind Pressure Rain
since 9am
mm
Weather Cloud Vis
km
Sea
Height
m
Swell
Dir
 
Speed
knots
Gust
knots
hPa Trend Height
m
Period
s
Dir
27/11:30pm 23.9 ENE 4 6 1018.1 - 0.0 - - - - - - -
27/11:00pm 23.3 ENE 4 6 1018.2 - 0.0 - - - - - - -
27/10:30pm 24.4 ENE 8 13 1018.4 - 0.0 - - - - - - -
27/10:00pm 22.9 SSW 4 5 1017.7 - 0.0 - - - - - - -
27/09:30pm 23.3 SSW 3 4 1017.6 - 0.0 - - - - - - -
27/09:00pm 23.8 SW 3 4 1017.6 - 0.0 - - - - - - -
27/08:30pm 24.2 SW 4 5 1017.5 - 0.0 - - - - - - -

Other Formats:

Comma delimited format used in spreadsheet applications
http://www.bom.gov.au/fwo/IDQ60701/IDQ60701.94268.axf

JavaScript Object Notation format (JSON) in row-major order
http://www.bom.gov.au/fwo/IDQ60701/IDQ60701.94268.json